sensor_id;sensor_type;location;lat;lon;timestamp;pressure;altitude;pressure_sealevel;temperature;humidity
65546;BME280;52177;55.968;37.498;2023-11-19T00:00:02;100657.94;;;-9.98;70.01
65546;BME280;52177;55.968;37.498;2023-11-19T00:00:34;100656.25;;;-9.99;69.98
65546;BME280;52177;55.968;37.498;2023-11-19T00:01:05;100655.41;;;-9.99;70.14
65546;BME280;52177;55.968;37.498;2023-11-19T00:01:36;100651.94;;;-9.98;70.02
65546;BME280;52177;55.968;37.498;2023-11-19T00:02:07;100663.06;;;-9.96;69.82
65546;BME280;52177;55.968;37.498;2023-11-19T00:02:39;100656.25;;;-9.99;69.95
65546;BME280;52177;55.968;37.498;2023-11-19T00:03:09;100657.94;;;-9.98;69.90
65546;BME280;52177;55.968;37.498;2023-11-19T00:03:41;100663.06;;;-9.94;69.97
65546;BME280;52177;55.968;37.498;2023-11-19T00:04:11;100655.31;;;-9.94;69.98
65546;BME280;52177;55.968;37.498;2023-11-19T00:04:42;100656.16;;;-9.92;69.95
65546;BME280;52177;55.968;37.498;2023-11-19T00:05:13;100652.75;;;-9.94;69.80
65546;BME280;52177;55.968;37.498;2023-11-19T00:05:44;100663.06;;;-9.94;69.86
65546;BME280;52177;55.968;37.498;2023-11-19T00:06:18;100655.34;;;-9.96;69.83
65546;BME280;52177;55.968;37.498;2023-11-19T00:06:48;100651.91;;;-9.96;69.69
65546;BME280;52177;55.968;37.498;2023-11-19T00:07:19;100653.66;;;-9.97;69.83
65546;BME280;52177;55.968;37.498;2023-11-19T00:07:50;100653.66;;;-9.97;69.74
65546;BME280;52177;55.968;37.498;2023-11-19T00:08:20;100651.91;;;-9.96;69.91
65546;BME280;52177;55.968;37.498;2023-11-19T00:08:51;100650.19;;;-9.96;69.72
65546;BME280;52177;55.968;37.498;2023-11-19T00:09:21;100647.63;;;-9.98;69.65
65546;BME280;52177;55.968;37.498;2023-11-19T00:09:52;100653.59;;;-9.95;69.43
65546;BME280;52177;55.968;37.498;2023-11-19T00:10:25;100656.22;;;-9.97;69.51
65546;BME280;52177;55.968;37.498;2023-11-19T00:10:55;100653.66;;;-9.99;69.49
65546;BME280;52177;55.968;37.498;2023-11-19T00:11:26;100653.66;;;-9.97;69.71
65546;BME280;52177;55.968;37.498;2023-11-19T00:11:56;100655.34;;;-9.96;69.84
65546;BME280;52177;55.968;37.498;2023-11-19T00:12:27;100657.88;;;-9.93;69.75
65546;BME280;52177;55.968;37.498;2023-11-19T00:12:57;100651.00;;;-9.92;69.87
65546;BME280;52177;55.968;37.498;2023-11-19T00:13:27;100655.28;;;-9.93;69.59
65546;BME280;52177;55.968;37.498;2023-11-19T00:13:58;100657.88;;;-9.93;69.53
65546;BME280;52177;55.968;37.498;2023-11-19T00:14:28;100658.75;;;-9.94;69.32
65546;BME280;52177;55.968;37.498;2023-11-19T00:14:59;100656.16;;;-9.94;69.33
65546;BME280;52177;55.968;37.498;2023-11-19T00:15:30;100657.91;;;-9.94;69.08
65546;BME280;52177;55.968;37.498;2023-11-19T00:16:00;100656.22;;;-9.97;69.32
65546;BME280;52177;55.968;37.498;2023-11-19T00:16:34;100657.94;;;-9.98;69.13
65546;BME280;52177;55.968;37.498;2023-11-19T00:17:05;100667.41;;;-9.98;69.34
65546;BME280;52177;55.968;37.498;2023-11-19T00:17:35;100659.72;;;-10.00;69.22
65546;BME280;52177;55.968;37.498;2023-11-19T00:18:05;100662.31;;;-10.01;69.29
65546;BME280;52177;55.968;37.498;2023-11-19T00:18:36;100657.16;;;-10.03;69.32
65546;BME280;52177;55.968;37.498;2023-11-19T00:19:06;100661.47;;;-10.03;69.37
65546;BME280;52177;55.968;37.498;2023-11-19T00:19:38;100664.03;;;-10.03;69.56
65546;BME280;52177;55.968;37.498;2023-11-19T00:20:09;100652.88;;;-10.04;69.56
65546;BME280;52177;55.968;37.498;2023-11-19T00:20:40;100664.03;;;-10.03;69.66
65546;BME280;52177;55.968;37.498;2023-11-19T00:21:10;100656.31;;;-10.03;69.58
65546;BME280;52177;55.968;37.498;2023-11-19T00:21:41;100652.84;;;-10.02;69.54
65546;BME280;52177;55.968;37.498;2023-11-19T00:22:11;100651.97;;;-10.01;69.33
65546;BME280;52177;55.968;37.498;2023-11-19T00:22:42;100651.97;;;-10.01;69.41
65546;BME280;52177;55.968;37.498;2023-11-19T00:23:13;100651.97;;;-10.01;69.40
65546;BME280;52177;55.968;37.498;2023-11-19T00:23:43;100651.16;;;-10.03;69.40
65546;BME280;52177;55.968;37.498;2023-11-19T00:24:14;100657.16;;;-10.03;69.40
65546;BME280;52177;55.968;37.498;2023-11-19T00:24:46;100644.31;;;-10.04;69.48
65546;BME280;52177;55.968;37.498;2023-11-19T00:25:18;100650.31;;;-10.04;69.60
65546;BME280;52177;55.968;37.498;2023-11-19T00:25:48;100651.16;;;-10.03;69.66
65546;BME280;52177;55.968;37.498;2023-11-19T00:26:19;100650.31;;;-10.04;69.73
65546;BME280;52177;55.968;37.498;2023-11-19T00:26:50;100653.72;;;-10.03;69.66
65546;BME280;52177;55.968;37.498;2023-11-19T00:27:20;100654.56;;;-10.03;69.83
65546;BME280;52177;55.968;37.498;2023-11-19T00:27:51;100649.47;;;-10.04;69.75
65546;BME280;52177;55.968;37.498;2023-11-19T00:28:23;100654.63;;;-10.04;69.69
65546;BME280;52177;55.968;37.498;2023-11-19T00:28:54;100646.00;;;-10.03;69.57
65546;BME280;52177;55.968;37.498;2023-11-19T00:29:26;100656.28;;;-10.02;69.78
65546;BME280;52177;55.968;37.498;2023-11-19T00:29:56;100652.84;;;-10.01;69.81
65546;BME280;52177;55.968;37.498;2023-11-19T00:30:27;100650.25;;;-9.99;69.70
65546;BME280;52177;55.968;37.498;2023-11-19T00:30:57;100644.22;;;-10.00;69.56
65546;BME280;52177;55.968;37.498;2023-11-19T00:31:28;100652.84;;;-10.01;69.46
65546;BME280;52177;55.968;37.498;2023-11-19T00:31:58;100647.66;;;-9.99;69.49
65546;BME280;52177;55.968;37.498;2023-11-19T00:32:29;100652.81;;;-9.99;69.70
65546;BME280;52177;55.968;37.498;2023-11-19T00:32:59;100645.94;;;-9.99;69.49
65546;BME280;52177;55.968;37.498;2023-11-19T00:33:30;100645.09;;;-9.99;69.56
65546;BME280;52177;55.968;37.498;2023-11-19T00:34:02;100648.50;;;-9.97;69.57
65546;BME280;52177;55.968;37.498;2023-11-19T00:34:32;100649.34;;;-9.98;69.47
65546;BME280;52177;55.968;37.498;2023-11-19T00:35:04;100645.91;;;-9.97;69.48
65546;BME280;52177;55.968;37.498;2023-11-19T00:35:34;100640.75;;;-9.97;69.37
65546;BME280;52177;55.968;37.498;2023-11-19T00:36:05;100651.91;;;-9.96;69.23
65546;BME280;52177;55.968;37.498;2023-11-19T00:36:36;100646.78;;;-9.98;69.20
65546;BME280;52177;55.968;37.498;2023-11-19T00:37:06;100646.72;;;-9.95;69.31
65546;BME280;52177;55.968;37.498;2023-11-19T00:37:37;100650.19;;;-9.96;69.24
65546;BME280;52177;55.968;37.498;2023-11-19T00:38:07;100646.75;;;-9.96;69.12
65546;BME280;52177;55.968;37.498;2023-11-19T00:38:38;100648.50;;;-9.97;69.03
65546;BME280;52177;55.968;37.498;2023-11-19T00:39:08;100651.06;;;-9.97;69.03
65546;BME280;52177;55.968;37.498;2023-11-19T00:39:39;100653.66;;;-9.99;68.89
65546;BME280;52177;55.968;37.498;2023-11-19T00:40:10;100647.66;;;-9.99;69.11
65546;BME280;52177;55.968;37.498;2023-11-19T00:40:40;100645.09;;;-9.99;68.97
65546;BME280;52177;55.968;37.498;2023-11-19T00:41:11;100645.09;;;-9.99;69.13
65546;BME280;52177;55.968;37.498;2023-11-19T00:41:41;100648.50;;;-10.00;69.23
65546;BME280;52177;55.968;37.498;2023-11-19T00:42:12;100644.22;;;-10.00;69.35
65546;BME280;52177;55.968;37.498;2023-11-19T00:42:42;100640.81;;;-10.02;69.25
65546;BME280;52177;55.968;37.498;2023-11-19T00:43:13;100644.25;;;-10.03;69.52
65546;BME280;52177;55.968;37.498;2023-11-19T00:43:44;100647.72;;;-10.04;69.52
65546;BME280;52177;55.968;37.498;2023-11-19T00:44:14;100643.41;;;-10.03;69.52
65546;BME280;52177;55.968;37.498;2023-11-19T00:44:45;100645.16;;;-10.05;69.55
65546;BME280;52177;55.968;37.498;2023-11-19T00:45:16;100641.72;;;-10.04;69.58
65546;BME280;52177;55.968;37.498;2023-11-19T00:45:46;100640.84;;;-10.05;69.64
65546;BME280;52177;55.968;37.498;2023-11-19T00:46:17;100641.72;;;-10.04;69.71
65546;BME280;52177;55.968;37.498;2023-11-19T00:46:47;100639.16;;;-10.06;69.73
65546;BME280;52177;55.968;37.498;2023-11-19T00:47:18;100634.84;;;-10.05;69.91
65546;BME280;52177;55.968;37.498;2023-11-19T00:47:50;100638.25;;;-10.03;69.94
65546;BME280;52177;55.968;37.498;2023-11-19T00:48:21;100633.16;;;-10.06;69.78
65546;BME280;52177;55.968;37.498;2023-11-19T00:48:51;100634.84;;;-10.04;69.85
65546;BME280;52177;55.968;37.498;2023-11-19T00:49:21;100635.69;;;-10.03;69.78
65546;BME280;52177;55.968;37.498;2023-11-19T00:49:52;100633.94;;;-10.03;69.89
65546;BME280;52177;55.968;37.498;2023-11-19T00:50:22;100640.84;;;-10.03;69.74
65546;BME280;52177;55.968;37.498;2023-11-19T00:50:53;100635.69;;;-10.03;69.73
65546;BME280;52177;55.968;37.498;2023-11-19T00:51:23;100642.56;;;-10.04;69.71
65546;BME280;52177;55.968;37.498;2023-11-19T00:51:54;100634.84;;;-10.05;69.62
65546;BME280;52177;55.968;37.498;2023-11-19T00:52:24;100630.59;;;-10.06;69.74
65546;BME280;52177;55.968;37.498;2023-11-19T00:52:55;100636.59;;;-10.06;69.69
65546;BME280;52177;55.968;37.498;2023-11-19T00:53:25;100636.59;;;-10.07;69.73
65546;BME280;52177;55.968;37.498;2023-11-19T00:53:55;100633.16;;;-10.06;69.74
65546;BME280;52177;55.968;37.498;2023-11-19T00:54:26;100634.84;;;-10.05;69.64
65546;BME280;52177;55.968;37.498;2023-11-19T00:54:56;100632.28;;;-10.05;69.78
65546;BME280;52177;55.968;37.498;2023-11-19T00:55:27;100635.75;;;-10.06;69.73
65546;BME280;52177;55.968;37.498;2023-11-19T00:55:57;100629.69;;;-10.07;69.91
65546;BME280;52177;55.968;37.498;2023-11-19T00:56:28;100626.28;;;-10.07;69.89
65546;BME280;52177;55.968;37.498;2023-11-19T00:56:58;100628.84;;;-10.07;70.03
65546;BME280;52177;55.968;37.498;2023-11-19T00:57:29;100628.84;;;-10.07;70.09
65546;BME280;52177;55.968;37.498;2023-11-19T00:58:00;100621.97;;;-10.07;70.13
65546;BME280;52177;55.968;37.498;2023-11-19T00:58:31;100628.00;;;-10.06;70.13
65546;BME280;52177;55.968;37.498;2023-11-19T00:59:02;100627.13;;;-10.05;70.24
65546;BME280;52177;55.968;37.498;2023-11-19T00:59:32;100628.84;;;-10.04;70.06
65546;BME280;52177;55.968;37.498;2023-11-19T01:00:04;100627.94;;;-10.02;70.07
65546;BME280;52177;55.968;37.498;2023-11-19T01:00:55;100625.38;;;-10.03;70.00
65546;BME280;52177;55.968;37.498;2023-11-19T01:01:27;100634.78;;;-10.02;70.00
65546;BME280;52177;55.968;37.498;2023-11-19T01:01:58;100623.63;;;-10.01;69.94
65546;BME280;52177;55.968;37.498;2023-11-19T01:02:33;100631.34;;;-10.00;70.18
65546;BME280;52177;55.968;37.498;2023-11-19T01:03:04;100626.97;;;-9.98;70.03
65546;BME280;52177;55.968;37.498;2023-11-19T01:03:37;100620.97;;;-9.96;70.05
65546;BME280;52177;55.968;37.498;2023-11-19T01:04:07;100626.97;;;-9.96;69.98
65546;BME280;52177;55.968;37.498;2023-11-19T01:04:38;100624.38;;;-9.94;70.13
65546;BME280;52177;55.968;37.498;2023-11-19T01:05:09;100620.91;;;-9.93;70.08
65546;BME280;52177;55.968;37.498;2023-11-19T01:05:39;100625.22;;;-9.92;70.02
65546;BME280;52177;55.968;37.498;2023-11-19T01:06:10;100614.91;;;-9.94;69.97
65546;BME280;52177;55.968;37.498;2023-11-19T01:06:40;100619.22;;;-9.94;70.14
65546;BME280;52177;55.968;37.498;2023-11-19T01:07:12;100613.19;;;-9.95;70.10
65546;BME280;52177;55.968;37.498;2023-11-19T01:07:43;100618.31;;;-9.93;70.24
65546;BME280;52177;55.968;37.498;2023-11-19T01:08:13;100618.31;;;-9.93;70.29
65546;BME280;52177;55.968;37.498;2023-11-19T01:08:45;100616.59;;;-9.93;70.19
65546;BME280;52177;55.968;37.498;2023-11-19T01:09:15;100618.31;;;-9.93;70.19
65546;BME280;52177;55.968;37.498;2023-11-19T01:09:45;100617.47;;;-9.92;70.36
65546;BME280;52177;55.968;37.498;2023-11-19T01:10:16;100608.00;;;-9.93;70.18
65546;BME280;52177;55.968;37.498;2023-11-19T01:10:46;100612.31;;;-9.94;70.30
65546;BME280;52177;55.968;37.498;2023-11-19T01:11:21;100609.72;;;-9.92;70.36
65546;BME280;52177;55.968;37.498;2023-11-19T01:11:51;100610.56;;;-9.92;70.28
65546;BME280;52177;55.968;37.498;2023-11-19T01:12:22;100607.94;;;-9.90;70.25
65546;BME280;52177;55.968;37.498;2023-11-19T01:12:53;100608.78;;;-9.88;70.48
65546;BME280;52177;55.968;37.498;2023-11-19T01:13:24;100605.34;;;-9.87;70.44
65546;BME280;52177;55.968;37.498;2023-11-19T01:13:54;100603.59;;;-9.85;70.39
65546;BME280;52177;55.968;37.498;2023-11-19T01:14:25;100602.72;;;-9.86;70.53
65546;BME280;52177;55.968;37.498;2023-11-19T01:14:55;100602.69;;;-9.84;70.56
65546;BME280;52177;55.968;37.498;2023-11-19T01:15:27;100598.38;;;-9.82;70.60
65546;BME280;52177;55.968;37.498;2023-11-19T01:15:57;100599.16;;;-9.79;70.85
65546;BME280;52177;55.968;37.498;2023-11-19T01:16:27;100596.53;;;-9.75;70.77
65546;BME280;52177;55.968;37.498;2023-11-19T01:16:58;100599.97;;;-9.73;70.65
65546;BME280;52177;55.968;37.498;2023-11-19T01:17:28;100599.91;;;-9.70;70.72
65546;BME280;52177;55.968;37.498;2023-11-19T01:18:01;100595.53;;;-9.67;70.66
65546;BME280;52177;55.968;37.498;2023-11-19T01:18:35;100590.28;;;-9.62;70.46
65546;BME280;52177;55.968;37.498;2023-11-19T01:19:06;100597.09;;;-9.58;70.54
65546;BME280;52177;55.968;37.498;2023-11-19T01:19:36;100595.31;;;-9.54;70.52
65546;BME280;52177;55.968;37.498;2023-11-19T01:20:07;100592.69;;;-9.53;70.48
65546;BME280;52177;55.968;37.498;2023-11-19T01:20:37;100596.97;;;-9.50;70.23
65546;BME280;52177;55.968;37.498;2023-11-19T01:21:08;100597.81;;;-9.50;70.38
65546;BME280;52177;55.968;37.498;2023-11-19T01:21:38;100598.56;;;-9.45;70.59
65546;BME280;52177;55.968;37.498;2023-11-19T01:22:09;100592.56;;;-9.45;70.66
65546;BME280;52177;55.968;37.498;2023-11-19T01:22:39;100592.53;;;-9.44;70.72
65546;BME280;52177;55.968;37.498;2023-11-19T01:23:10;100593.41;;;-9.43;70.91
65546;BME280;52177;55.968;37.498;2023-11-19T01:23:41;100585.59;;;-9.42;70.99
65546;BME280;52177;55.968;37.498;2023-11-19T01:24:15;100580.44;;;-9.42;71.05
65546;BME280;52177;55.968;37.498;2023-11-19T01:24:46;100587.31;;;-9.41;71.27
65546;BME280;52177;55.968;37.498;2023-11-19T01:25:16;100595.03;;;-9.39;71.28
65546;BME280;52177;55.968;37.498;2023-11-19T01:25:47;100584.69;;;-9.39;71.51
65546;BME280;52177;55.968;37.498;2023-11-19T01:26:18;100582.94;;;-9.37;71.60
65546;BME280;52177;55.968;37.498;2023-11-19T01:26:49;100584.59;;;-9.35;71.63
65546;BME280;52177;55.968;37.498;2023-11-19T01:27:19;100576.84;;;-9.33;71.71
65546;BME280;52177;55.968;37.498;2023-11-19T01:27:50;100578.50;;;-9.30;71.64
65546;BME280;52177;55.968;37.498;2023-11-19T01:28:20;100584.47;;;-9.27;71.80
65546;BME280;52177;55.968;37.498;2023-11-19T01:28:51;100575.84;;;-9.26;71.87
65546;BME280;52177;55.968;37.498;2023-11-19T01:29:23;100578.41;;;-9.24;71.80
65546;BME280;52177;55.968;37.498;2023-11-19T01:29:53;100574.94;;;-9.23;71.88
65546;BME280;52177;55.968;37.498;2023-11-19T01:30:25;100578.34;;;-9.23;71.85
65546;BME280;52177;55.968;37.498;2023-11-19T01:30:56;100577.44;;;-9.20;71.83
65546;BME280;52177;55.968;37.498;2023-11-19T01:31:26;100580.03;;;-9.20;71.87
65546;BME280;52177;55.968;37.498;2023-11-19T01:31:57;100582.59;;;-9.19;71.94
65546;BME280;52177;55.968;37.498;2023-11-19T01:32:27;100587.72;;;-9.17;71.92
65546;BME280;52177;55.968;37.498;2023-11-19T01:32:57;100584.25;;;-9.16;71.73
65546;BME280;52177;55.968;37.498;2023-11-19T01:33:28;100590.25;;;-9.14;71.87
65546;BME280;52177;55.968;37.498;2023-11-19T01:33:58;100579.84;;;-9.11;71.93
65546;BME280;52177;55.968;37.498;2023-11-19T01:34:29;100585.81;;;-9.07;72.00
65546;BME280;52177;55.968;37.498;2023-11-19T01:34:59;100586.63;;;-9.05;71.89
65546;BME280;52177;55.968;37.498;2023-11-19T01:35:30;100590.91;;;-9.04;71.87
65546;BME280;52177;55.968;37.498;2023-11-19T01:36:01;100592.63;;;-9.03;71.75
65546;BME280;52177;55.968;37.498;2023-11-19T01:36:31;100589.16;;;-9.02;71.89
65546;BME280;52177;55.968;37.498;2023-11-19T01:37:02;100589.94;;;-8.99;72.02
65546;BME280;52177;55.968;37.498;2023-11-19T01:37:33;100590.75;;;-8.97;71.83
65546;BME280;52177;55.968;37.498;2023-11-19T01:38:05;100589.81;;;-8.93;71.90
65546;BME280;52177;55.968;37.498;2023-11-19T01:38:36;100582.91;;;-8.92;71.94
65546;BME280;52177;55.968;37.498;2023-11-19T01:39:06;100585.47;;;-8.90;72.05
65546;BME280;52177;55.968;37.498;2023-11-19T01:39:37;100578.56;;;-8.90;71.94
65546;BME280;52177;55.968;37.498;2023-11-19T01:40:07;100580.28;;;-8.89;71.95
65546;BME280;52177;55.968;37.498;2023-11-19T01:40:38;100585.38;;;-8.87;71.97
65546;BME280;52177;55.968;37.498;2023-11-19T01:41:09;100587.94;;;-8.86;72.22
65546;BME280;52177;55.968;37.498;2023-11-19T01:41:39;100586.19;;;-8.84;72.18
65546;BME280;52177;55.968;37.498;2023-11-19T01:42:09;100581.88;;;-8.83;72.41
65546;BME280;52177;55.968;37.498;2023-11-19T01:42:42;100586.16;;;-8.82;72.42
65546;BME280;52177;55.968;37.498;2023-11-19T01:43:12;100582.69;;;-8.81;72.50
65546;BME280;52177;55.968;37.498;2023-11-19T01:44:01;100585.25;;;-8.80;72.30
65546;BME280;52177;55.968;37.498;2023-11-19T01:44:31;100580.94;;;-8.79;72.25
65546;BME280;52177;55.968;37.498;2023-11-19T01:45:02;100577.44;;;-8.78;72.20
65546;BME280;52177;55.968;37.498;2023-11-19T01:45:33;100580.91;;;-8.78;72.22
65546;BME280;52177;55.968;37.498;2023-11-19T01:46:05;100579.09;;;-8.76;72.02
65546;BME280;52177;55.968;37.498;2023-11-19T01:46:36;100579.94;;;-8.74;72.12
65546;BME280;52177;55.968;37.498;2023-11-19T01:47:08;100583.34;;;-8.72;72.19
65546;BME280;52177;55.968;37.498;2023-11-19T01:47:39;100582.41;;;-8.69;72.27
65546;BME280;52177;55.968;37.498;2023-11-19T01:48:11;100583.25;;;-8.67;72.15
65546;BME280;52177;55.968;37.498;2023-11-19T01:48:45;100586.63;;;-8.65;72.10
65546;BME280;52177;55.968;37.498;2023-11-19T01:49:17;100585.75;;;-8.64;72.11
65546;BME280;52177;55.968;37.498;2023-11-19T01:49:48;100584.84;;;-8.61;72.13
65546;BME280;52177;55.968;37.498;2023-11-19T01:50:18;100589.13;;;-8.60;72.23
65546;BME280;52177;55.968;37.498;2023-11-19T01:50:50;100578.75;;;-8.59;72.15
65546;BME280;52177;55.968;37.498;2023-11-19T01:51:22;100578.69;;;-8.56;72.10
65546;BME280;52177;55.968;37.498;2023-11-19T01:51:53;100577.75;;;-8.53;72.08
65546;BME280;52177;55.968;37.498;2023-11-19T01:52:23;100586.38;;;-8.53;71.92
65546;BME280;52177;55.968;37.498;2023-11-19T01:52:56;100577.69;;;-8.50;71.99
65546;BME280;52177;55.968;37.498;2023-11-19T01:53:30;100578.59;;;-8.51;72.10
65546;BME280;52177;55.968;37.498;2023-11-19T01:54:02;100579.41;;;-8.49;72.09
65546;BME280;52177;55.968;37.498;2023-11-19T01:54:33;100572.50;;;-8.48;72.05
65546;BME280;52177;55.968;37.498;2023-11-19T01:55:03;100575.00;;;-8.45;72.08
65546;BME280;52177;55.968;37.498;2023-11-19T01:55:34;100581.00;;;-8.43;72.21
65546;BME280;52177;55.968;37.498;2023-11-19T01:56:07;100583.56;;;-8.42;72.28
65546;BME280;52177;55.968;37.498;2023-11-19T01:56:41;100575.78;;;-8.40;72.23
65546;BME280;52177;55.968;37.498;2023-11-19T01:57:12;100586.03;;;-8.39;72.26
65546;BME280;52177;55.968;37.498;2023-11-19T01:57:43;100574.81;;;-8.38;72.16
65546;BME280;52177;55.968;37.498;2023-11-19T01:58:15;100575.66;;;-8.37;72.28
65546;BME280;52177;55.968;37.498;2023-11-19T01:58:46;100575.63;;;-8.36;72.09
65546;BME280;52177;55.968;37.498;2023-11-19T01:59:18;100569.56;;;-8.35;72.29
65546;BME280;52177;55.968;37.498;2023-11-19T01:59:52;100572.97;;;-8.33;72.26
65546;BME280;52177;55.968;37.498;2023-11-19T02:00:23;100574.63;;;-8.30;72.40
65546;BME280;52177;55.968;37.498;2023-11-19T02:00:54;100569.47;;;-8.30;72.35
65546;BME280;52177;55.968;37.498;2023-11-19T02:01:25;100568.56;;;-8.29;72.46
65546;BME280;52177;55.968;37.498;2023-11-19T02:01:55;100566.88;;;-8.30;72.22
65546;BME280;52177;55.968;37.498;2023-11-19T02:02:27;100568.56;;;-8.29;72.29
65546;BME280;52177;55.968;37.498;2023-11-19T02:02:57;100570.22;;;-8.27;72.23
65546;BME280;52177;55.968;37.498;2023-11-19T02:03:28;100563.34;;;-8.26;72.42
65546;BME280;52177;55.968;37.498;2023-11-19T02:03:59;100569.31;;;-8.24;72.46
65546;BME280;52177;55.968;37.498;2023-11-19T02:04:30;100565.00;;;-8.23;72.48
65546;BME280;52177;55.968;37.498;2023-11-19T02:05:00;100564.06;;;-8.21;72.33
65546;BME280;52177;55.968;37.498;2023-11-19T02:05:31;100566.66;;;-8.21;72.35
65546;BME280;52177;55.968;37.498;2023-11-19T02:06:02;100565.75;;;-8.20;72.46
65546;BME280;52177;55.968;37.498;2023-11-19T02:06:34;100563.13;;;-8.18;72.52
65546;BME280;52177;55.968;37.498;2023-11-19T02:07:07;100562.25;;;-8.17;72.54
65546;BME280;52177;55.968;37.498;2023-11-19T02:07:39;100569.16;;;-8.18;72.66
65546;BME280;52177;55.968;37.498;2023-11-19T02:08:09;100569.16;;;-8.18;72.49
65546;BME280;52177;55.968;37.498;2023-11-19T02:08:40;100565.69;;;-8.17;72.65
65546;BME280;52177;55.968;37.498;2023-11-19T02:09:10;100566.53;;;-8.16;72.76
65546;BME280;52177;55.968;37.498;2023-11-19T02:09:44;100563.91;;;-8.15;72.84
65546;BME280;52177;55.968;37.498;2023-11-19T02:10:14;100560.47;;;-8.15;72.91
65546;BME280;52177;55.968;37.498;2023-11-19T02:10:47;100566.50;;;-8.15;72.94
65546;BME280;52177;55.968;37.498;2023-11-19T02:11:17;100567.38;;;-8.14;73.03
65546;BME280;52177;55.968;37.498;2023-11-19T02:11:48;100563.03;;;-8.14;73.10
65546;BME280;52177;55.968;37.498;2023-11-19T02:12:21;100556.13;;;-8.13;73.12
65546;BME280;52177;55.968;37.498;2023-11-19T02:12:51;100558.69;;;-8.12;72.94
65546;BME280;52177;55.968;37.498;2023-11-19T02:13:23;100556.94;;;-8.11;73.07
65546;BME280;52177;55.968;37.498;2023-11-19T02:13:54;100562.94;;;-8.11;73.11
65546;BME280;52177;55.968;37.498;2023-11-19T02:14:25;100557.75;;;-8.09;73.14
65546;BME280;52177;55.968;37.498;2023-11-19T02:14:57;100564.59;;;-8.08;73.17
65546;BME280;52177;55.968;37.498;2023-11-19T02:15:29;100564.59;;;-8.08;73.27
65546;BME280;52177;55.968;37.498;2023-11-19T02:15:59;100568.00;;;-8.06;73.34
65546;BME280;52177;55.968;37.498;2023-11-19T02:16:30;100562.00;;;-8.07;73.33
65546;BME280;52177;55.968;37.498;2023-11-19T02:17:00;100565.47;;;-8.08;73.26
65546;BME280;52177;55.968;37.498;2023-11-19T02:17:31;100561.19;;;-8.09;73.36
65546;BME280;52177;55.968;37.498;2023-11-19T02:18:18;100556.84;;;-8.08;73.57
65546;BME280;52177;55.968;37.498;2023-11-19T02:18:49;100565.47;;;-8.08;73.60
65546;BME280;52177;55.968;37.498;2023-11-19T02:19:20;100562.03;;;-8.08;73.80
65546;BME280;52177;55.968;37.498;2023-11-19T02:19:50;100567.16;;;-8.07;73.69
65546;BME280;52177;55.968;37.498;2023-11-19T02:20:20;100564.56;;;-8.05;73.70
65546;BME280;52177;55.968;37.498;2023-11-19T02:20:51;100555.03;;;-8.04;73.75
65546;BME280;52177;55.968;37.498;2023-11-19T02:21:22;100558.44;;;-8.02;73.70
65546;BME280;52177;55.968;37.498;2023-11-19T02:21:52;100560.13;;;-8.01;73.68
65546;BME280;52177;55.968;37.498;2023-11-19T02:22:23;100560.94;;;-7.99;73.82
65546;BME280;52177;55.968;37.498;2023-11-19T02:22:54;100559.25;;;-8.00;73.83
65546;BME280;52177;55.968;37.498;2023-11-19T02:23:26;100569.56;;;-7.99;73.85
65546;BME280;52177;55.968;37.498;2023-11-19T02:23:57;100566.03;;;-7.96;74.01
65546;BME280;52177;55.968;37.498;2023-11-19T02:24:30;100566.03;;;-7.96;73.83
65546;BME280;52177;55.968;37.498;2023-11-19T02:25:05;100565.19;;;-7.97;73.84
65546;BME280;52177;55.968;37.498;2023-11-19T02:25:37;100566.91;;;-7.96;73.68
65546;BME280;52177;55.968;37.498;2023-11-19T02:26:12;100562.53;;;-7.94;73.83
65546;BME280;52177;55.968;37.498;2023-11-19T02:26:52;100559.03;;;-7.91;73.71
65546;BME280;52177;55.968;37.498;2023-11-19T02:27:45;100558.97;;;-7.90;73.94
65546;BME280;52177;55.968;37.498;2023-11-19T02:28:17;100559.81;;;-7.89;73.81
65546;BME280;52177;55.968;37.498;2023-11-19T02:28:48;100561.53;;;-7.88;74.01
65546;BME280;52177;55.968;37.498;2023-11-19T02:29:18;100563.22;;;-7.87;74.05
65546;BME280;52177;55.968;37.498;2023-11-19T02:29:49;100567.47;;;-7.85;73.86
65546;BME280;52177;55.968;37.498;2023-11-19T02:30:20;100571.78;;;-7.83;73.77
65546;BME280;52177;55.968;37.498;2023-11-19T02:30:50;100562.25;;;-7.83;73.67
65546;BME280;52177;55.968;37.498;2023-11-19T02:31:21;100566.59;;;-7.83;73.84
65546;BME280;52177;55.968;37.498;2023-11-19T02:31:53;100566.59;;;-7.83;73.65
65546;BME280;52177;55.968;37.498;2023-11-19T02:32:27;100566.59;;;-7.83;73.87
65546;BME280;52177;55.968;37.498;2023-11-19T02:33:01;100566.63;;;-7.85;73.74
65546;BME280;52177;55.968;37.498;2023-11-19T02:33:36;100566.59;;;-7.83;73.88
65546;BME280;52177;55.968;37.498;2023-11-19T02:34:07;100569.19;;;-7.83;73.94
65546;BME280;52177;55.968;37.498;2023-11-19T02:34:37;100564.84;;;-7.83;73.82
65546;BME280;52177;55.968;37.498;2023-11-19T02:35:08;100568.25;;;-7.81;74.01
65546;BME280;52177;55.968;37.498;2023-11-19T02:35:38;100559.66;;;-7.81;73.90
65546;BME280;52177;55.968;37.498;2023-11-19T02:36:10;100569.94;;;-7.80;73.86
65546;BME280;52177;55.968;37.498;2023-11-19T02:36:41;100566.50;;;-7.80;73.91
65546;BME280;52177;55.968;37.498;2023-11-19T02:37:11;100557.00;;;-7.80;73.82
65546;BME280;52177;55.968;37.498;2023-11-19T02:37:42;100565.59;;;-7.78;73.77
65546;BME280;52177;55.968;37.498;2023-11-19T02:38:12;100564.75;;;-7.78;73.74
65546;BME280;52177;55.968;37.498;2023-11-19T02:38:44;100563.00;;;-7.78;73.81
65546;BME280;52177;55.968;37.498;2023-11-19T02:39:15;100566.41;;;-7.76;73.91
65546;BME280;52177;55.968;37.498;2023-11-19T02:39:51;100563.78;;;-7.74;73.89
65546;BME280;52177;55.968;37.498;2023-11-19T02:40:21;100558.53;;;-7.73;73.90
65546;BME280;52177;55.968;37.498;2023-11-19T02:40:54;100559.34;;;-7.71;73.96